sensor_id;sensor_type;location;lat;lon;timestamp;pressure;altitude;pressure_sealevel;temperature;humidity
31096;BME280;17749;51.962;8.560;2024-01-06T06:01:25;98997.00;;;4.94;100.00
31096;BME280;17749;51.962;8.560;2024-01-06T06:03:52;98992.72;;;4.90;100.00
31096;BME280;17749;51.962;8.560;2024-01-06T06:06:19;98997.28;;;4.84;100.00
31096;BME280;17749;51.962;8.560;2024-01-06T06:08:46;98999.25;;;4.79;100.00
31096;BME280;17749;51.962;8.560;2024-01-06T06:11:15;99006.28;;;4.79;100.00
31096;BME280;17749;51.962;8.560;2024-01-06T06:13:43;99012.59;;;4.75;100.00
31096;BME280;17749;51.962;8.560;2024-01-06T06:16:11;99015.97;;;4.78;100.00
31096;BME280;17749;51.962;8.560;2024-01-06T06:18:41;99015.16;;;4.76;100.00
31096;BME280;17749;51.962;8.560;2024-01-06T06:21:08;99023.13;;;4.75;100.00
31096;BME280;17749;51.962;8.560;2024-01-06T06:23:35;99021.31;;;4.77;100.00
31096;BME280;17749;51.962;8.560;2024-01-06T06:26:08;99029.28;;;4.75;100.00
31096;BME280;17749;51.962;8.560;2024-01-06T06:28:35;99024.97;;;4.73;100.00
31096;BME280;17749;51.962;8.560;2024-01-06T06:31:03;99032.91;;;4.71;100.00
31096;BME280;17749;51.962;8.560;2024-01-06T06:33:30;99041.75;;;4.70;100.00
31096;BME280;17749;51.962;8.560;2024-01-06T06:36:00;99036.69;;;4.64;100.00
31096;BME280;17749;51.962;8.560;2024-01-06T06:38:28;99041.34;;;4.56;100.00
31096;BME280;17749;51.962;8.560;2024-01-06T06:40:56;99051.69;;;4.62;100.00
31096;BME280;17749;51.962;8.560;2024-01-06T06:43:23;99044.75;;;4.59;100.00
31096;BME280;17749;51.962;8.560;2024-01-06T06:45:50;99051.78;;;4.59;100.00
31096;BME280;17749;51.962;8.560;2024-01-06T06:48:18;99054.53;;;4.56;100.00
31096;BME280;17749;51.962;8.560;2024-01-06T06:50:47;99061.41;;;4.60;100.00
31096;BME280;17749;51.962;8.560;2024-01-06T06:53:15;99066.78;;;4.57;100.00
31096;BME280;17749;51.962;8.560;2024-01-06T06:55:42;99071.09;;;4.59;100.00
31096;BME280;17749;51.962;8.560;2024-01-06T06:58:09;99072.06;;;4.57;100.00
31096;BME280;17749;51.962;8.560;2024-01-06T07:00:36;99074.69;;;4.57;100.00
31096;BME280;17749;51.962;8.560;2024-01-06T07:03:05;99077.53;;;4.51;100.00
31096;BME280;17749;51.962;8.560;2024-01-06T07:05:32;99079.41;;;4.47;100.00
31096;BME280;17749;51.962;8.560;2024-01-06T07:08:02;99085.94;;;4.35;100.00
31096;BME280;17749;51.962;8.560;2024-01-06T07:10:29;99088.47;;;4.38;100.00
31096;BME280;17749;51.962;8.560;2024-01-06T07:12:56;99091.94;;;4.41;100.00
31096;BME280;17749;51.962;8.560;2024-01-06T07:15:23;99102.38;;;4.44;100.00
31096;BME280;17749;51.962;8.560;2024-01-06T07:17:50;99100.69;;;4.41;100.00
31096;BME280;17749;51.962;8.560;2024-01-06T07:20:18;99103.34;;;4.39;100.00
31096;BME280;17749;51.962;8.560;2024-01-06T07:22:45;99104.38;;;4.35;100.00
31096;BME280;17749;51.962;8.560;2024-01-06T07:25:12;99107.91;;;4.34;100.00
31096;BME280;17749;51.962;8.560;2024-01-06T07:27:39;99121.97;;;4.35;100.00
31096;BME280;17749;51.962;8.560;2024-01-06T07:30:06;99124.66;;;4.33;100.00
31096;BME280;17749;51.962;8.560;2024-01-06T07:32:35;99138.75;;;4.32;100.00
31096;BME280;17749;51.962;8.560;2024-01-06T07:35:02;99131.59;;;4.36;100.00
31096;BME280;17749;51.962;8.560;2024-01-06T07:37:33;99138.44;;;4.42;100.00
31096;BME280;17749;51.962;8.560;2024-01-06T07:40:00;99139.44;;;4.37;100.00
31096;BME280;17749;51.962;8.560;2024-01-06T07:42:28;99143.91;;;4.35;100.00
31096;BME280;17749;51.962;8.560;2024-01-06T07:44:55;99148.25;;;4.38;100.00
31096;BME280;17749;51.962;8.560;2024-01-06T07:47:22;99149.22;;;4.34;100.00
31096;BME280;17749;51.962;8.560;2024-01-06T07:49:49;99158.94;;;4.32;100.00
31096;BME280;17749;51.962;8.560;2024-01-06T07:52:16;99158.16;;;4.30;100.00
31096;BME280;17749;51.962;8.560;2024-01-06T07:54:43;99163.41;;;4.30;100.00
31096;BME280;17749;51.962;8.560;2024-01-06T07:57:10;99164.44;;;4.24;100.00
31096;BME280;17749;51.962;8.560;2024-01-06T07:59:38;99168.00;;;4.23;100.00
31096;BME280;17749;51.962;8.560;2024-01-06T08:02:05;99173.28;;;4.22;100.00
31096;BME280;17749;51.962;8.560;2024-01-06T08:04:32;99182.16;;;4.19;100.00
31096;BME280;17749;51.962;8.560;2024-01-06T08:07:00;99182.16;;;4.19;100.00
31096;BME280;17749;51.962;8.560;2024-01-06T08:09:27;99187.38;;;4.21;100.00
31096;BME280;17749;51.962;8.560;2024-01-06T08:11:54;99195.41;;;4.16;100.00
31096;BME280;17749;51.962;8.560;2024-01-06T08:14:21;99194.63;;;4.14;100.00
31096;BME280;17749;51.962;8.560;2024-01-06T08:16:48;99194.53;;;4.17;100.00
31096;BME280;17749;51.962;8.560;2024-01-06T08:19:15;99196.59;;;4.06;100.00
31096;BME280;17749;51.962;8.560;2024-01-06T08:21:43;99194.78;;;4.08;100.00
31096;BME280;17749;51.962;8.560;2024-01-06T08:24:10;99208.91;;;4.05;100.00
31096;BME280;17749;51.962;8.560;2024-01-06T08:26:37;99206.25;;;4.05;100.00
31096;BME280;17749;51.962;8.560;2024-01-06T08:29:04;99207.94;;;4.08;100.00
31096;BME280;17749;51.962;8.560;2024-01-06T08:31:31;99214.13;;;4.07;100.00
31096;BME280;17749;51.962;8.560;2024-01-06T08:34:00;99212.47;;;4.03;100.00
31096;BME280;17749;51.962;8.560;2024-01-06T08:36:27;99228.28;;;4.03;100.00
31096;BME280;17749;51.962;8.560;2024-01-06T08:38:54;99236.28;;;4.00;100.00
31096;BME280;17749;51.962;8.560;2024-01-06T08:41:21;99230.19;;;3.98;100.00
31096;BME280;17749;51.962;8.560;2024-01-06T08:43:48;99242.47;;;3.99;100.00
31096;BME280;17749;51.962;8.560;2024-01-06T08:46:15;99242.47;;;3.99;100.00
31096;BME280;17749;51.962;8.560;2024-01-06T08:48:43;99247.75;;;3.99;100.00
31096;BME280;17749;51.962;8.560;2024-01-06T08:51:10;99253.81;;;4.01;100.00
31096;BME280;17749;51.962;8.560;2024-01-06T08:53:37;99260.00;;;4.00;100.00
31096;BME280;17749;51.962;8.560;2024-01-06T08:56:04;99261.66;;;4.04;100.00
31096;BME280;17749;51.962;8.560;2024-01-06T08:58:33;99272.13;;;4.05;100.00
31096;BME280;17749;51.962;8.560;2024-01-06T09:01:00;99271.44;;;3.99;100.00
31096;BME280;17749;51.962;8.560;2024-01-06T09:03:27;99272.34;;;3.98;100.00
31096;BME280;17749;51.962;8.560;2024-01-06T09:05:57;99280.22;;;3.99;100.00
31096;BME280;17749;51.962;8.560;2024-01-06T09:08:24;99285.59;;;3.94;100.00
31096;BME280;17749;51.962;8.560;2024-01-06T09:10:51;99286.59;;;3.90;100.00
31096;BME280;17749;51.962;8.560;2024-01-06T09:13:23;99297.03;;;3.93;100.00
31096;BME280;17749;51.962;8.560;2024-01-06T09:15:53;99303.81;;;4.04;100.00
31096;BME280;17749;51.962;8.560;2024-01-06T09:18:21;99304.75;;;4.01;100.00
31096;BME280;17749;51.962;8.560;2024-01-06T09:20:49;99303.94;;;3.98;100.00
31096;BME280;17749;51.962;8.560;2024-01-06T09:23:16;99305.72;;;3.97;100.00
31096;BME280;17749;51.962;8.560;2024-01-06T09:25:43;99307.72;;;3.87;100.00
31096;BME280;17749;51.962;8.560;2024-01-06T09:28:10;99311.19;;;3.89;100.00
31096;BME280;17749;51.962;8.560;2024-01-06T09:30:38;99314.72;;;3.88;100.00
31096;BME280;17749;51.962;8.560;2024-01-06T09:33:05;99317.41;;;3.87;100.00
31096;BME280;17749;51.962;8.560;2024-01-06T09:35:32;99322.66;;;3.87;100.00
31096;BME280;17749;51.962;8.560;2024-01-06T09:37:59;99329.69;;;3.88;100.00
31096;BME280;17749;51.962;8.560;2024-01-06T09:40:26;99333.28;;;3.84;100.00
31096;BME280;17749;51.962;8.560;2024-01-06T09:42:54;99330.53;;;3.88;100.00
31096;BME280;17749;51.962;8.560;2024-01-06T09:45:21;99342.78;;;3.89;100.00
31096;BME280;17749;51.962;8.560;2024-01-06T09:47:50;99341.91;;;3.90;100.00
31096;BME280;17749;51.962;8.560;2024-01-06T09:50:18;99346.34;;;3.88;100.00
31096;BME280;17749;51.962;8.560;2024-01-06T09:52:47;99345.47;;;3.88;100.00
31096;BME280;17749;51.962;8.560;2024-01-06T09:55:25;99349.06;;;3.85;100.00
31096;BME280;17749;51.962;8.560;2024-01-06T09:57:55;99354.25;;;3.88;100.00
31096;BME280;17749;51.962;8.560;2024-01-06T10:00:23;99354.16;;;3.91;100.00
31096;BME280;17749;51.962;8.560;2024-01-06T10:02:50;99355.13;;;3.87;100.00
31096;BME280;17749;51.962;8.560;2024-01-06T10:05:21;99360.41;;;3.87;100.00
31096;BME280;17749;51.962;8.560;2024-01-06T10:07:49;99361.47;;;3.80;100.00
31096;BME280;17749;51.962;8.560;2024-01-06T10:10:16;99367.72;;;3.74;100.00
31096;BME280;17749;51.962;8.560;2024-01-06T10:12:43;99366.75;;;3.80;100.00
31096;BME280;17749;51.962;8.560;2024-01-06T10:15:11;99364.91;;;3.82;100.00
31096;BME280;17749;51.962;8.560;2024-01-06T10:17:40;99375.41;;;3.84;100.00
31096;BME280;17749;51.962;8.560;2024-01-06T10:20:09;99371.16;;;3.78;100.00
31096;BME280;17749;51.962;8.560;2024-01-06T10:22:38;99365.09;;;3.74;100.00
31096;BME280;17749;51.962;8.560;2024-01-06T10:25:07;99369.41;;;3.77;100.00
31096;BME280;17749;51.962;8.560;2024-01-06T10:27:39;99363.41;;;3.72;100.00
31096;BME280;17749;51.962;8.560;2024-01-06T10:30:08;99373.03;;;3.73;100.00
31096;BME280;17749;51.962;8.560;2024-01-06T10:32:39;99373.03;;;3.73;100.00
31096;BME280;17749;51.962;8.560;2024-01-06T10:35:07;99373.81;;;3.78;100.00
31096;BME280;17749;51.962;8.560;2024-01-06T10:37:35;99373.81;;;3.78;100.00
31096;BME280;17749;51.962;8.560;2024-01-06T10:40:10;99373.03;;;3.73;100.00
31096;BME280;17749;51.962;8.560;2024-01-06T10:42:40;99374.00;;;3.69;100.00
31096;BME280;17749;51.962;8.560;2024-01-06T10:45:08;99381.13;;;3.65;100.00
31096;BME280;17749;51.962;8.560;2024-01-06T10:47:37;99391.72;;;3.62;100.00
31096;BME280;17749;51.962;8.560;2024-01-06T10:50:04;99393.56;;;3.59;100.00
31096;BME280;17749;51.962;8.560;2024-01-06T10:52:32;99390.88;;;3.62;100.00
31096;BME280;17749;51.962;8.560;2024-01-06T10:54:59;99385.72;;;3.56;100.00
31096;BME280;17749;51.962;8.560;2024-01-06T10:57:27;99391.09;;;3.51;100.00
31096;BME280;17749;51.962;8.560;2024-01-06T10:59:57;99398.06;;;3.54;100.00
31096;BME280;17749;51.962;8.560;2024-01-06T11:02:26;99396.25;;;3.56;100.00
31096;BME280;17749;51.962;8.560;2024-01-06T11:04:54;99401.63;;;3.51;100.00
31096;BME280;17749;51.962;8.560;2024-01-06T11:07:22;99401.44;;;3.59;100.00
31096;BME280;17749;51.962;8.560;2024-01-06T11:09:55;99399.66;;;3.61;100.00
31096;BME280;17749;51.962;8.560;2024-01-06T11:12:23;99409.47;;;3.54;100.00
31096;BME280;17749;51.962;8.560;2024-01-06T11:14:53;99400.69;;;3.54;100.00
31096;BME280;17749;51.962;8.560;2024-01-06T11:17:52;99397.09;;;3.58;100.00
31096;BME280;17749;51.962;8.560;2024-01-06T11:20:22;99399.66;;;3.61;100.00
31096;BME280;17749;51.962;8.560;2024-01-06T11:22:50;99397.09;;;3.58;100.00
31096;BME280;17749;51.962;8.560;2024-01-06T11:25:22;99401.44;;;3.59;100.00
31096;BME280;17749;51.962;8.560;2024-01-06T11:27:50;99396.19;;;3.59;100.00
31096;BME280;17749;51.962;8.560;2024-01-06T11:30:21;99394.38;;;3.61;100.00
31096;BME280;17749;51.962;8.560;2024-01-06T11:32:54;99394.38;;;3.61;100.00
31096;BME280;17749;51.962;8.560;2024-01-06T11:35:22;99392.59;;;3.63;100.00
31096;BME280;17749;51.962;8.560;2024-01-06T11:37:53;99388.25;;;3.60;100.00
31096;BME280;17749;51.962;8.560;2024-01-06T11:43:11;99388.25;;;3.60;100.00
31096;BME280;17749;51.962;8.560;2024-01-06T11:45:44;99390.91;;;3.59;100.00
31096;BME280;17749;51.962;8.560;2024-01-06T11:48:11;99391.94;;;3.53;100.00
31096;BME280;17749;51.962;8.560;2024-01-06T11:50:40;99392.78;;;3.54;100.00
31096;BME280;17749;51.962;8.560;2024-01-06T11:53:08;99394.38;;;3.61;100.00
31096;BME280;17749;51.962;8.560;2024-01-06T11:55:39;99396.25;;;3.56;100.00
31096;BME280;17749;51.962;8.560;2024-01-06T11:58:06;99409.44;;;3.56;100.00
31096;BME280;17749;51.962;8.560;2024-01-06T12:00:34;99409.34;;;3.59;100.00
31096;BME280;17749;51.962;8.560;2024-01-06T12:03:07;99409.56;;;3.49;100.00
31096;BME280;17749;51.962;8.560;2024-01-06T12:05:34;99422.91;;;3.40;100.00
31096;BME280;17749;51.962;8.560;2024-01-06T12:08:02;99422.13;;;3.37;100.00
31096;BME280;17749;51.962;8.560;2024-01-06T12:10:34;99419.47;;;3.38;100.00
31096;BME280;17749;51.962;8.560;2024-01-06T12:13:04;99408.97;;;3.38;100.00
31096;BME280;17749;51.962;8.560;2024-01-06T12:15:32;99410.75;;;3.36;100.00
31096;BME280;17749;51.962;8.560;2024-01-06T12:18:03;99412.34;;;3.43;100.00
31096;BME280;17749;51.962;8.560;2024-01-06T12:20:30;99413.84;;;3.54;100.00
31096;BME280;17749;51.962;8.560;2024-01-06T12:22:58;99419.00;;;3.60;100.00
31096;BME280;17749;51.962;8.560;2024-01-06T12:25:27;99411.88;;;3.65;100.00
31096;BME280;17749;51.962;8.560;2024-01-06T12:27:56;99411.03;;;3.61;100.00
31096;BME280;17749;51.962;8.560;2024-01-06T12:30:23;99414.75;;;3.53;100.00
31096;BME280;17749;51.962;8.560;2024-01-06T12:32:51;99420.78;;;3.58;100.00
31096;BME280;17749;51.962;8.560;2024-01-06T12:35:21;99419.94;;;3.56;100.00
31096;BME280;17749;51.962;8.560;2024-01-06T12:37:51;99419.88;;;3.59;100.00
31096;BME280;17749;51.962;8.560;2024-01-06T12:40:19;99430.41;;;3.59;100.00
31096;BME280;17749;51.962;8.560;2024-01-06T12:42:47;99423.56;;;3.51;100.00
31096;BME280;17749;51.962;8.560;2024-01-06T12:45:14;99422.66;;;3.53;100.00
31096;BME280;17749;51.962;8.560;2024-01-06T12:47:43;99427.06;;;3.52;100.00
31096;BME280;17749;51.962;8.560;2024-01-06T12:50:11;99414.69;;;3.56;100.00
31096;BME280;17749;51.962;8.560;2024-01-06T12:52:38;99422.66;;;3.53;100.00
31096;BME280;17749;51.962;8.560;2024-01-06T12:55:07;99413.97;;;3.49;100.00
31096;BME280;17749;51.962;8.560;2024-01-06T12:57:35;99421.75;;;3.54;100.00
31096;BME280;17749;51.962;8.560;2024-01-06T13:00:02;99418.13;;;3.59;100.00
31096;BME280;17749;51.962;8.560;2024-01-06T13:02:30;99427.69;;;3.63;100.00
31096;BME280;17749;51.962;8.560;2024-01-06T13:04:56;99423.31;;;3.62;100.00
31096;BME280;17749;51.962;8.560;2024-01-06T13:07:24;99421.31;;;3.72;100.00
31096;BME280;17749;51.962;8.560;2024-01-06T13:09:52;99423.00;;;3.76;100.00
31096;BME280;17749;51.962;8.560;2024-01-06T13:12:19;99424.78;;;3.76;100.00
31096;BME280;17749;51.962;8.560;2024-01-06T13:14:46;99431.69;;;3.80;100.00
31096;BME280;17749;51.962;8.560;2024-01-06T13:17:17;99444.81;;;3.83;100.00
31096;BME280;17749;51.962;8.560;2024-01-06T13:19:44;99439.56;;;3.81;100.00
31096;BME280;17749;51.962;8.560;2024-01-06T13:22:12;99450.19;;;3.78;100.00
31096;BME280;17749;51.962;8.560;2024-01-06T13:24:40;99451.06;;;3.77;100.00
31096;BME280;17749;51.962;8.560;2024-01-06T13:27:07;99453.69;;;3.77;100.00
31096;BME280;17749;51.962;8.560;2024-01-06T13:29:35;99465.16;;;3.74;100.00
31096;BME280;17749;51.962;8.560;2024-01-06T13:32:02;99466.09;;;3.72;100.00
31096;BME280;17749;51.962;8.560;2024-01-06T13:34:29;99465.38;;;3.67;100.00
31096;BME280;17749;51.962;8.560;2024-01-06T13:36:57;99471.66;;;3.60;100.00
31096;BME280;17749;51.962;8.560;2024-01-06T13:39:24;99477.94;;;3.54;100.00
31096;BME280;17749;51.962;8.560;2024-01-06T13:41:51;99477.09;;;3.50;100.00
31096;BME280;17749;51.962;8.560;2024-01-06T13:44:18;99477.00;;;3.57;100.00
31096;BME280;17749;51.962;8.560;2024-01-06T13:46:45;99490.84;;;3.65;100.00
31096;BME280;17749;51.962;8.560;2024-01-06T13:49:14;99489.94;;;3.66;100.00
31096;BME280;17749;51.962;8.560;2024-01-06T13:51:42;99487.63;;;3.50;100.00
31096;BME280;17749;51.962;8.560;2024-01-06T13:54:09;99499.91;;;3.51;100.00
31096;BME280;17749;51.962;8.560;2024-01-06T13:56:36;99492.81;;;3.54;100.00
31096;BME280;17749;51.962;8.560;2024-01-06T13:59:04;99499.00;;;3.54;100.00
31096;BME280;17749;51.962;8.560;2024-01-06T14:01:31;99494.59;;;3.53;100.00
31096;BME280;17749;51.962;8.560;2024-01-06T14:03:59;99490.94;;;3.60;100.00
31096;BME280;17749;51.962;8.560;2024-01-06T14:06:27;99498.06;;;3.57;100.00
31096;BME280;17749;51.962;8.560;2024-01-06T14:08:58;99503.34;;;3.54;100.00
31096;BME280;17749;51.962;8.560;2024-01-06T14:11:26;99498.06;;;3.57;100.00
31096;BME280;17749;51.962;8.560;2024-01-06T14:13:53;99505.94;;;3.57;100.00
31096;BME280;17749;51.962;8.560;2024-01-06T14:16:20;99506.91;;;3.53;100.00
31096;BME280;17749;51.962;8.560;2024-01-06T14:18:50;99512.25;;;3.49;100.00
31096;BME280;17749;51.962;8.560;2024-01-06T14:21:18;99516.59;;;3.50;100.00
31096;BME280;17749;51.962;8.560;2024-01-06T14:23:46;99517.53;;;3.48;100.00
31096;BME280;17749;51.962;8.560;2024-01-06T14:26:19;99515.88;;;3.42;100.00
31096;BME280;17749;51.962;8.560;2024-01-06T14:28:50;99524.75;;;3.38;100.00
31096;BME280;17749;51.962;8.560;2024-01-06T14:31:17;99524.75;;;3.38;100.00
31096;BME280;17749;51.962;8.560;2024-01-06T14:33:45;99528.09;;;3.46;100.00
31096;BME280;17749;51.962;8.560;2024-01-06T14:36:12;99528.94;;;3.48;100.00
31096;BME280;17749;51.962;8.560;2024-01-06T14:38:40;99528.94;;;3.48;100.00
31096;BME280;17749;51.962;8.560;2024-01-06T14:41:07;99536.78;;;3.51;100.00
31096;BME280;17749;51.962;8.560;2024-01-06T14:43:34;99540.28;;;3.50;100.00
31096;BME280;17749;51.962;8.560;2024-01-06T14:46:01;99534.16;;;3.50;100.00
31096;BME280;17749;51.962;8.560;2024-01-06T14:48:28;99542.09;;;3.48;100.00
31096;BME280;17749;51.962;8.560;2024-01-06T14:50:55;99547.59;;;3.36;100.00
31096;BME280;17749;51.962;8.560;2024-01-06T14:53:22;99544.00;;;3.40;100.00
31096;BME280;17749;51.962;8.560;2024-01-06T14:55:49;99557.28;;;3.36;100.00
31096;BME280;17749;51.962;8.560;2024-01-06T14:58:16;99559.00;;;3.37;100.00
31096;BME280;17749;51.962;8.560;2024-01-06T15:00:43;99560.78;;;3.35;100.00
31096;BME280;17749;51.962;8.560;2024-01-06T15:03:11;99562.41;;;3.40;100.00
31096;BME280;17749;51.962;8.560;2024-01-06T15:05:38;99561.53;;;3.41;100.00
31096;BME280;17749;51.962;8.560;2024-01-06T15:08:06;99565.13;;;3.37;100.00
31096;BME280;17749;51.962;8.560;2024-01-06T15:10:33;99568.50;;;3.44;100.00
31096;BME280;17749;51.962;8.560;2024-01-06T15:13:00;99571.16;;;3.44;100.00
31096;BME280;17749;51.962;8.560;2024-01-06T15:15:27;99578.06;;;3.49;100.00
31096;BME280;17749;51.962;8.560;2024-01-06T15:17:54;99579.81;;;3.49;100.00
31096;BME280;17749;51.962;8.560;2024-01-06T15:20:22;99578.00;;;3.51;100.00
31096;BME280;17749;51.962;8.560;2024-01-06T15:22:50;99581.66;;;3.44;100.00
31096;BME280;17749;51.962;8.560;2024-01-06T15:25:17;99592.16;;;3.45;100.00
31096;BME280;17749;51.962;8.560;2024-01-06T15:27:45;99589.59;;;3.42;100.00
31096;BME280;17749;51.962;8.560;2024-01-06T15:30:14;99586.00;;;3.46;100.00
31096;BME280;17749;51.962;8.560;2024-01-06T15:32:43;99598.41;;;3.41;100.00
31096;BME280;17749;51.962;8.560;2024-01-06T15:35:10;99607.34;;;3.31;100.00
31096;BME280;17749;51.962;8.560;2024-01-06T15:37:37;99602.94;;;3.33;100.00
31096;BME280;17749;51.962;8.560;2024-01-06T15:40:05;99601.94;;;3.39;100.00
31096;BME280;17749;51.962;8.560;2024-01-06T15:42:33;99603.59;;;3.44;100.00
31096;BME280;17749;51.962;8.560;2024-01-06T15:45:00;99606.22;;;3.46;100.00
31096;BME280;17749;51.962;8.560;2024-01-06T15:47:27;99609.81;;;3.40;100.00
31096;BME280;17749;51.962;8.560;2024-01-06T15:49:54;99616.03;;;3.36;100.00
31096;BME280;17749;51.962;8.560;2024-01-06T15:52:21;99615.25;;;3.29;100.00
31096;BME280;17749;51.962;8.560;2024-01-06T15:54:49;99618.94;;;3.22;100.00
31096;BME280;17749;51.962;8.560;2024-01-06T15:57:16;99619.84;;;3.20;100.00
31096;BME280;17749;51.962;8.560;2024-01-06T15:59:44;99619.94;;;3.14;100.00
31096;BME280;17749;51.962;8.560;2024-01-06T16:02:11;99621.78;;;3.08;100.00
31096;BME280;17749;51.962;8.560;2024-01-06T16:04:38;99620.19;;;2.98;100.00
31096;BME280;17749;51.962;8.560;2024-01-06T16:07:05;99629.00;;;2.97;100.00
31096;BME280;17749;51.962;8.560;2024-01-06T16:09:33;99629.72;;;3.05;100.00
31096;BME280;17749;51.962;8.560;2024-01-06T16:12:00;99627.91;;;3.09;100.00
31096;BME280;17749;51.962;8.560;2024-01-06T16:14:27;99637.50;;;3.12;100.00
31096;BME280;17749;51.962;8.560;2024-01-06T16:16:57;99649.78;;;3.13;100.00
31096;BME280;17749;51.962;8.560;2024-01-06T16:19:27;99648.00;;;3.13;100.00
31096;BME280;17749;51.962;8.560;2024-01-06T16:21:57;99647.16;;;3.11;100.00
31096;BME280;17749;51.962;8.560;2024-01-06T16:24:40;99651.50;;;3.14;100.00
31096;BME280;17749;51.962;8.560;2024-01-06T16:27:07;99652.41;;;3.13;100.00
31096;BME280;17749;51.962;8.560;2024-01-06T16:29:35;99653.28;;;3.12;100.00
31096;BME280;17749;51.962;8.560;2024-01-06T16:32:02;99654.25;;;3.07;100.00
31096;BME280;17749;51.962;8.560;2024-01-06T16:34:29;99666.63;;;3.02;100.00
31096;BME280;17749;51.962;8.560;2024-01-06T16:36:57;99665.88;;;2.94;100.00
31096;BME280;17749;51.962;8.560;2024-01-06T16:39:23;99663.25;;;2.94;100.00
31096;BME280;17749;51.962;8.560;2024-01-06T16:41:51;99665.94;;;2.91;100.00
31096;BME280;17749;51.962;8.560;2024-01-06T16:44:17;99664.16;;;2.90;100.00
31096;BME280;17749;51.962;8.560;2024-01-06T16:46:44;99665.94;;;2.88;100.00
31096;BME280;17749;51.962;8.560;2024-01-06T16:49:11;99674.00;;;2.77;100.00
31096;BME280;17749;51.962;8.560;2024-01-06T16:51:38;99674.19;;;2.67;100.00
31096;BME280;17749;51.962;8.560;2024-01-06T16:54:05;99678.56;;;2.68;100.00
31096;BME280;17749;51.962;8.560;2024-01-06T16:56:32;99677.72;;;2.66;100.00
31096;BME280;17749;51.962;8.560;2024-01-06T16:58:59;99689.09;;;2.64;100.00
31096;BME280;17749;51.962;8.560;2024-01-06T17:01:26;99689.34;;;2.49;100.00
31096;BME280;17749;51.962;8.560;2024-01-06T17:03:54;99691.88;;;2.55;100.00
31096;BME280;17749;51.962;8.560;2024-01-06T17:06:21;99699.72;;;2.58;100.00
31096;BME280;17749;51.962;8.560;2024-01-06T17:08:48;99698.84;;;2.56;100.00
31096;BME280;17749;51.962;8.560;2024-01-06T17:11:15;99701.69;;;2.41;100.00
31096;BME280;17749;51.962;8.560;2024-01-06T17:13:42;99703.53;;;2.36;100.00
31096;BME280;17749;51.962;8.560;2024-01-06T17:16:09;99706.94;;;2.41;100.00
31096;BME280;17749;51.962;8.560;2024-01-06T17:18:36;99704.25;;;2.46;100.00
31096;BME280;17749;51.962;8.560;2024-01-06T17:21:03;99710.38;;;2.46;100.00
31096;BME280;17749;51.962;8.560;2024-01-06T17:23:30;99714.78;;;2.47;100.00
31096;BME280;17749;51.962;8.560;2024-01-06T17:25:57;99709.66;;;2.36;100.00
31096;BME280;17749;51.962;8.560;2024-01-06T17:28:24;99714.97;;;2.30;100.00
31096;BME280;17749;51.962;8.560;2024-01-06T17:30:51;99713.25;;;2.28;100.00
31096;BME280;17749;51.962;8.560;2024-01-06T17:33:18;99712.38;;;2.29;100.00
31096;BME280;17749;51.962;8.560;2024-01-06T17:35:45;99727.28;;;2.28;100.00
31096;BME280;17749;51.962;8.560;2024-01-06T17:38:12;99724.75;;;2.21;100.00
31096;BME280;17749;51.962;8.560;2024-01-06T17:40:39;99729.16;;;2.17;100.00
31096;BME280;17749;51.962;8.560;2024-01-06T17:43:06;99728.25;;;2.19;100.00
31096;BME280;17749;51.962;8.560;2024-01-06T17:45:33;99734.50;;;2.09;100.00
31096;BME280;17749;51.962;8.560;2024-01-06T17:48:01;99734.59;;;2.00;100.00
31096;BME280;17749;51.962;8.560;2024-01-06T17:50:28;99735.44;;;2.04;100.00
31096;BME280;17749;51.962;8.560;2024-01-06T17:52:55;99744.25;;;1.98;100.00
31096;BME280;17749;51.962;8.560;2024-01-06T17:55:22;99743.34;;;2.01;100.00
31096;BME280;17749;51.962;8.560;2024-01-06T17:57:49;99753.00;;;2.00;100.00
31096;BME280;17749;51.962;8.560;2024-01-06T18:00:16;99749.44;;;2.04;100.00
31096;BME280;17749;51.962;8.560;2024-01-06T18:02:43;99754.75;;;1.98;100.00
31096;BME280;17749;51.962;8.560;2024-01-06T18:05:14;99753.97;;;1.91;100.00
31096;BME280;17749;51.962;8.560;2024-01-06T18:07:42;99755.78;;;1.83;100.00
31096;BME280;17749;51.962;8.560;2024-01-06T18:10:09;99757.50;;;1.89;100.00
31096;BME280;17749;51.962;8.560;2024-01-06T18:12:37;99761.84;;;1.90;100.00
31096;BME280;17749;51.962;8.560;2024-01-06T18:15:05;99758.38;;;1.88;100.00
31096;BME280;17749;51.962;8.560;2024-01-06T18:17:32;99763.69;;;1.82;100.00
31096;BME280;17749;51.962;8.560;2024-01-06T18:20:02;99757.59;;;1.78;100.00
31096;BME280;17749;51.962;8.560;2024-01-06T18:22:30;99772.44;;;1.81;100.00
31096;BME280;17749;51.962;8.560;2024-01-06T18:24:57;99768.97;;;1.75;100.00
31096;BME280;17749;51.962;8.560;2024-01-06T18:27:24;99767.19;;;1.81;100.00
31096;BME280;17749;51.962;8.560;2024-01-06T18:29:51;99765.38;;;1.86;100.00
31096;BME280;17749;51.962;8.560;2024-01-06T18:32:18;99771.53;;;1.83;100.00
31096;BME280;17749;51.962;8.560;2024-01-06T18:34:45;99767.25;;;1.74;100.00
31096;BME280;17749;51.962;8.560;2024-01-06T18:37:14;99770.75;;;1.77;100.00
31096;BME280;17749;51.962;8.560;2024-01-06T18:39:42;99780.38;;;1.74;100.00
31096;BME280;17749;51.962;8.560;2024-01-06T18:42:08;99776.84;;;1.75;100.00
31096;BME280;17749;51.962;8.560;2024-01-06T18:44:36;99788.25;;;1.74;100.00
31096;BME280;17749;51.962;8.560;2024-01-06T18:47:02;99783.91;;;1.73;100.00
31096;BME280;17749;51.962;8.560;2024-01-06T18:49:35;99783.91;;;1.73;100.00
31096;BME280;17749;51.962;8.560;2024-01-06T18:52:02;99789.16;;;1.73;100.00
31096;BME280;17749;51.962;8.560;2024-01-06T18:54:30;99793.50;;;1.74;100.00
31096;BME280;17749;51.962;8.560;2024-01-06T18:57:04;99793.50;;;1.74;100.00
31096;BME280;17749;51.962;8.560;2024-01-06T18:59:31;99797.84;;;1.77;100.00
31096;BME280;17749;51.962;8.560;2024-01-06T19:01:58;99800.47;;;1.75;100.00
31096;BME280;17749;51.962;8.560;2024-01-06T19:04:25;99802.28;;;1.73;100.00
31096;BME280;17749;51.962;8.560;2024-01-06T19:06:52;99804.88;;;1.75;100.00